Terminal Aerodrome Forecast
Issued by NWS

Home | Current Version | Previous Version | Text Only | Print | Product List | Glossary On
Versions: 1 2 3 4 5 6 7 8 9 10 11 12 13 14 15
000
FTUS42 TJSJ 180535
TAFJPS
TAF
TJPS 180535Z 1806/1906 04005KT P6SM FEW025 BKN050
     FM181400 15010KT P6SM FEW030
     FM182300 VRB03KT P6SM FEW030
     FM190200 VRB03KT P6SM FEW030=

USA.gov is the U.S. government's official web portal to all federal, state and local government web resources and services.